Time;durP1;ratioP1;P1;durP2;ratioP2;P2;SDS_P1;SDS_P2;PMS_P1;PMS_P2;Temp;Humidity;BMP_temperature;BMP_pressure;BME280_temperature;BME280_humidity;BME280_pressure;Samples;Min_cycle;Max_cycle;Signal;HPM_P1;HPM_P2
2023/06/08 00:01:07;;;;;;;;;;;23.20;73.20;;;;;;4929630;29;19973;-84
2023/06/08 00:03:32;;;;;;;;;;;23.20;73.10;;;;;;4919796;29;19957;-84
2023/06/08 00:05:59;;;;;;;;;;;23.20;73.30;;;;;;4930612;29;19950;-84
2023/06/08 00:08:25;;;;;;;;;;;23.10;74.60;;;;;;4918536;29;19957;-84
2023/06/08 00:10:51;;;;;;;;;;;23.00;75.10;;;;;;4924695;29;20376;-84
2023/06/08 00:13:17;;;;;;;;;;;22.90;76.50;;;;;;4917336;29;20030;-84
2023/06/08 00:15:43;;;;;;;;;;;22.80;75.70;;;;;;4923225;29;19919;-84
2023/06/08 00:18:08;;;;;;;;;;;22.90;75.70;;;;;;4933822;29;20007;-84
2023/06/08 00:20:35;;;;;;;;;;;22.80;76.40;;;;;;4910938;29;20163;-84
2023/06/08 00:23:03;;;;;;;;;;;22.80;76.40;;;;;;4922906;29;19918;-84
2023/06/08 00:25:29;;;;;;;;;;;22.80;76.50;;;;;;4919606;29;20007;-83
2023/06/08 00:27:55;;;;;;;;;;;22.80;75.90;;;;;;4924989;29;20019;-84
2023/06/08 00:30:20;;;;;;;;;;;22.80;76.40;;;;;;4917592;29;19974;-84
2023/06/08 00:32:46;;;;;;;;;;;22.70;77.00;;;;;;4926281;29;20041;-85
2023/06/08 00:35:12;;;;;;;;;;;22.60;77.40;;;;;;4918298;29;19919;-84
2023/06/08 00:37:37;;;;;;;;;;;22.60;78.00;;;;;;4927736;29;19911;-84
2023/06/08 00:40:06;;;;;;;;;;;22.70;76.80;;;;;;4917525;29;19911;-84
2023/06/08 00:42:32;;;;;;;;;;;22.60;77.20;;;;;;4929831;29;19922;-84
2023/06/08 00:44:57;;;;;;;;;;;22.70;76.80;;;;;;4916326;29;19911;-84
2023/06/08 00:47:23;;;;;;;;;;;22.70;76.40;;;;;;4929526;29;20222;-85
2023/06/08 00:49:50;;;;;;;;;;;22.80;76.60;;;;;;4936195;29;19911;-84
2023/06/08 00:52:15;;;;;;;;;;;22.80;76.10;;;;;;4924819;29;19922;-84
2023/06/08 00:54:43;;;;;;;;;;;22.70;77.30;;;;;;4932615;29;19918;-84
2023/06/08 00:57:10;;;;;;;;;;;22.70;76.50;;;;;;4926852;29;19994;-84
2023/06/08 00:59:36;;;;;;;;;;;22.70;76.90;;;;;;4930863;29;19911;-84
2023/06/08 01:02:04;;;;;;;;;;;22.60;77.20;;;;;;4929510;29;19911;-84
2023/06/08 01:04:31;;;;;;;;;;;22.40;78.40;;;;;;4929910;29;20001;-84
2023/06/08 01:07:14;;;;;;;;;;;22.40;78.80;;;;;;4932299;29;19915;-84
2023/06/08 01:09:44;;;;;;;;;;;22.40;78.70;;;;;;4930358;29;19919;-84
2023/06/08 01:12:10;;;;;;;;;;;22.40;78.00;;;;;;4932904;29;20076;-84
2023/06/08 01:14:50;;;;;;;;;;;22.50;78.30;;;;;;4944812;29;19911;-84
2023/06/08 01:17:18;;;;;;;;;;;22.50;77.40;;;;;;4933271;29;20175;-84
2023/06/08 01:19:52;;;;;;;;;;;22.60;77.40;;;;;;4928901;29;20283;-84
2023/06/08 01:22:27;;;;;;;;;;;22.60;77.10;;;;;;4930766;29;20003;-84
2023/06/08 01:24:56;;;;;;;;;;;22.60;77.00;;;;;;4926811;29;20006;-84
2023/06/08 01:27:25;;;;;;;;;;;22.60;77.10;;;;;;4919531;29;20002;-84
2023/06/08 01:29:51;;;;;;;;;;;22.60;76.40;;;;;;4936148;29;20014;-84
2023/06/08 01:32:18;;;;;;;;;;;22.60;77.00;;;;;;4934437;29;20357;-84
2023/06/08 01:34:44;;;;;;;;;;;22.40;77.50;;;;;;4924929;29;20039;-84
2023/06/08 01:37:40;;;;;;;;;;;22.50;76.70;;;;;;4934524;29;19954;-84
2023/06/08 01:40:10;;;;;;;;;;;22.60;76.30;;;;;;4911946;29;19919;-84
2023/06/08 01:42:35;;;;;;;;;;;22.60;76.10;;;;;;4934836;29;19914;-84
2023/06/08 01:45:07;;;;;;;;;;;22.60;76.10;;;;;;4930317;29;19982;-84
2023/06/08 01:47:47;;;;;;;;;;;22.60;76.20;;;;;;4934369;29;19981;-84
2023/06/08 01:50:13;;;;;;;;;;;22.60;75.80;;;;;;4909676;29;19930;-84
2023/06/08 01:52:39;;;;;;;;;;;22.60;75.50;;;;;;4918686;29;19997;-84
2023/06/08 01:55:13;;;;;;;;;;;22.60;75.20;;;;;;4926218;29;19911;-84
2023/06/08 01:57:39;;;;;;;;;;;22.70;74.90;;;;;;4936914;29;20247;-84
2023/06/08 02:00:05;;;;;;;;;;;22.60;74.80;;;;;;4921800;29;19919;-84
2023/06/08 02:02:30;;;;;;;;;;;22.60;74.80;;;;;;4917776;29;19911;-84
2023/06/08 02:04:57;;;;;;;;;;;22.60;74.50;;;;;;4930236;29;19962;-84
2023/06/08 02:07:23;;;;;;;;;;;22.60;74.30;;;;;;4919744;29;19912;-84
2023/06/08 02:09:48;;;;;;;;;;;22.60;74.20;;;;;;4929250;29;19992;-84
2023/06/08 02:12:14;;;;;;;;;;;22.60;74.20;;;;;;4923069;29;19911;-84
2023/06/08 02:14:40;;;;;;;;;;;22.50;74.50;;;;;;4926973;29;19911;-84
2023/06/08 02:17:06;;;;;;;;;;;22.50;74.30;;;;;;4924122;29;19946;-84
2023/06/08 02:19:32;;;;;;;;;;;22.50;74.00;;;;;;4924671;29;19911;-84
2023/06/08 02:21:58;;;;;;;;;;;22.50;74.00;;;;;;4926895;29;20013;-84
2023/06/08 02:24:23;;;;;;;;;;;22.50;73.90;;;;;;4921166;29;19915;-84
2023/06/08 02:26:52;;;;;;;;;;;22.50;74.00;;;;;;4927849;29;19922;-84
2023/06/08 02:29:18;;;;;;;;;;;22.50;73.90;;;;;;4920716;29;19911;-84
2023/06/08 02:31:44;;;;;;;;;;;22.50;73.80;;;;;;4930022;29;19916;-84
2023/06/08 02:34:10;;;;;;;;;;;22.50;73.80;;;;;;4921181;29;20263;-84
2023/06/08 02:36:36;;;;;;;;;;;22.50;73.60;;;;;;4931568;29;19915;-84
2023/06/08 02:39:01;;;;;;;;;;;22.50;73.70;;;;;;4920966;29;19911;-84
2023/06/08 02:41:27;;;;;;;;;;;22.50;73.60;;;;;;4936110;29;19934;-84
2023/06/08 02:43:52;;;;;;;;;;;22.40;73.40;;;;;;4922079;29;19922;-84
2023/06/08 02:46:18;;;;;;;;;;;22.40;73.40;;;;;;4936359;29;19950;-84
2023/06/08 02:48:44;;;;;;;;;;;22.40;73.30;;;;;;4921345;29;19981;-84
2023/06/08 02:51:09;;;;;;;;;;;22.40;73.30;;;;;;4930109;29;19910;-83
2023/06/08 02:53:35;;;;;;;;;;;22.40;73.40;;;;;;4923324;29;20260;-84
2023/06/08 02:56:02;;;;;;;;;;;22.40;73.40;;;;;;4926286;29;19911;-84
2023/06/08 02:58:30;;;;;;;;;;;22.30;73.30;;;;;;4936942;29;19923;-83
2023/06/08 03:00:59;;;;;;;;;;;22.30;73.20;;;;;;4915794;29;19950;-84
2023/06/08 03:03:29;;;;;;;;;;;22.30;73.20;;;;;;4926799;29;20284;-84
2023/06/08 03:05:58;;;;;;;;;;;22.30;73.20;;;;;;4923578;29;20264;-83
2023/06/08 03:08:25;;;;;;;;;;;22.30;73.10;;;;;;4928058;29;20021;-83
2023/06/08 03:10:51;;;;;;;;;;;22.30;73.10;;;;;;4921303;29;19923;-83
2023/06/08 03:13:17;;;;;;;;;;;22.30;73.10;;;;;;4929613;29;19910;-84
2023/06/08 03:15:44;;;;;;;;;;;22.30;73.10;;;;;;4921062;29;19911;-83
2023/06/08 03:18:10;;;;;;;;;;;22.20;73.10;;;;;;4928531;29;19915;-83
2023/06/08 03:20:36;;;;;;;;;;;22.20;73.10;;;;;;4954177;29;19911;-83
2023/06/08 03:23:02;;;;;;;;;;;22.20;73.10;;;;;;4937829;29;19915;-83
2023/06/08 03:25:28;;;;;;;;;;;22.20;73.20;;;;;;4939000;29;20155;-84
2023/06/08 03:27:54;;;;;;;;;;;22.20;73.20;;;;;;4930864;29;19938;-84
2023/06/08 03:30:19;;;;;;;;;;;22.20;73.10;;;;;;4904608;29;19915;-83
2023/06/08 03:32:48;;;;;;;;;;;22.20;73.00;;;;;;4914385;29;19918;-83
2023/06/08 03:35:18;;;;;;;;;;;22.20;73.00;;;;;;4904544;29;19911;-83
2023/06/08 03:37:43;;;;;;;;;;;22.20;73.10;;;;;;4913961;29;19911;-83
2023/06/08 03:40:09;;;;;;;;;;;22.10;73.00;;;;;;4906586;29;19915;-83
2023/06/08 03:42:35;;;;;;;;;;;22.10;73.10;;;;;;4908490;29;19967;-83
2023/06/08 03:45:01;;;;;;;;;;;22.10;73.00;;;;;;4932324;29;19918;-83
2023/06/08 03:47:26;;;;;;;;;;;22.10;73.10;;;;;;4934401;29;20187;-83
2023/06/08 03:49:52;;;;;;;;;;;22.10;73.10;;;;;;4938979;29;19923;-83
2023/06/08 03:52:18;;;;;;;;;;;22.00;73.00;;;;;;4907772;29;19950;-83
2023/06/08 03:54:44;;;;;;;;;;;22.00;73.00;;;;;;4942362;29;19911;-83
2023/06/08 03:57:10;;;;;;;;;;;22.00;73.10;;;;;;4906402;29;19914;-83
2023/06/08 03:59:36;;;;;;;;;;;21.90;73.60;;;;;;4930149;29;19911;-83
2023/06/08 04:02:02;;;;;;;;;;;21.90;73.70;;;;;;4919691;29;20192;-83
2023/06/08 04:04:31;;;;;;;;;;;21.90;73.50;;;;;;4929349;29;20260;-83
2023/06/08 04:07:00;;;;;;;;;;;21.80;73.50;;;;;;4916910;29;19946;-83
2023/06/08 04:09:29;;;;;;;;;;;21.90;73.50;;;;;;4931228;29;19918;-83
2023/06/08 04:11:56;;;;;;;;;;;21.90;73.10;;;;;;4918538;29;20160;-83
2023/06/08 04:14:21;;;;;;;;;;;21.90;72.90;;;;;;4930832;29;19910;-83
2023/06/08 04:16:47;;;;;;;;;;;21.90;72.80;;;;;;4917765;29;19978;-83
2023/06/08 04:19:13;;;;;;;;;;;22.00;72.70;;;;;;4930105;29;19922;-83
2023/06/08 04:21:39;;;;;;;;;;;21.90;72.70;;;;;;4921215;29;20291;-83
2023/06/08 04:24:05;;;;;;;;;;;22.00;72.50;;;;;;4924974;29;19915;-83
2023/06/08 04:26:30;;;;;;;;;;;21.90;72.30;;;;;;4920848;29;19915;-84
2023/06/08 04:28:56;;;;;;;;;;;22.00;72.40;;;;;;4922850;29;20325;-84
2023/06/08 04:31:22;;;;;;;;;;;22.00;72.20;;;;;;4936055;29;19922;-84
2023/06/08 04:33:48;;;;;;;;;;;22.00;72.10;;;;;;4905989;29;20208;-84
2023/06/08 04:36:13;;;;;;;;;;;22.00;72.10;;;;;;4927814;29;20176;-83
2023/06/08 04:38:41;;;;;;;;;;;22.00;71.90;;;;;;4934241;29;19910;-84
2023/06/08 04:41:07;;;;;;;;;;;22.00;71.80;;;;;;4926849;29;19914;-83
2023/06/08 04:43:34;;;;;;;;;;;22.00;71.90;;;;;;4934478;29;20014;-83
2023/06/08 04:46:04;;;;;;;;;;;21.90;72.10;;;;;;4910262;29;20291;-83
2023/06/08 04:48:33;;;;;;;;;;;21.80;72.40;;;;;;4921122;29;19917;-83
2023/06/08 04:51:09;;;;;;;;;;;21.80;72.10;;;;;;4909904;29;19911;-83
2023/06/08 04:53:35;;;;;;;;;;;21.80;72.20;;;;;;4922015;29;19973;-83
2023/06/08 04:56:02;;;;;;;;;;;21.90;72.10;;;;;;4909206;29;20017;-83
2023/06/08 04:58:29;;;;;;;;;;;21.80;72.30;;;;;;4937234;29;19919;-83
2023/06/08 05:00:55;;;;;;;;;;;21.90;72.20;;;;;;4908225;29;20001;-84
2023/06/08 05:03:21;;;;;;;;;;;21.80;72.30;;;;;;4921222;29;19911;-85
2023/06/08 05:05:47;;;;;;;;;;;21.80;72.10;;;;;;4937166;29;19922;-85
2023/06/08 05:08:12;;;;;;;;;;;21.80;72.10;;;;;;4919000;29;19918;-85
2023/06/08 05:10:38;;;;;;;;;;;21.80;72.40;;;;;;4917516;29;19910;-85
2023/06/08 05:13:04;;;;;;;;;;;21.80;72.10;;;;;;4919849;29;19974;-85
2023/06/08 05:15:32;;;;;;;;;;;21.80;71.90;;;;;;4935071;29;19919;-85
2023/06/08 05:17:58;;;;;;;;;;;21.70;72.70;;;;;;4917293;29;19911;-85
2023/06/08 05:20:25;;;;;;;;;;;21.70;72.70;;;;;;4917075;29;20227;-85
2023/06/08 05:22:51;;;;;;;;;;;21.70;72.50;;;;;;4919093;29;19929;-85
2023/06/08 05:25:17;;;;;;;;;;;21.60;72.90;;;;;;4919286;29;19929;-85
2023/06/08 05:27:42;;;;;;;;;;;21.80;72.50;;;;;;4919774;29;19978;-85
2023/06/08 05:30:08;;;;;;;;;;;21.70;72.60;;;;;;4919214;29;19918;-84
2023/06/08 05:32:34;;;;;;;;;;;21.70;72.50;;;;;;4918969;29;20232;-84
2023/06/08 05:35:00;;;;;;;;;;;21.80;71.80;;;;;;4918166;29;20129;-85
2023/06/08 05:37:26;;;;;;;;;;;21.90;71.40;;;;;;4917741;29;19933;-85
2023/06/08 05:39:52;;;;;;;;;;;21.90;71.70;;;;;;4921581;29;20178;-86
2023/06/08 05:42:17;;;;;;;;;;;21.80;72.00;;;;;;4938392;29;19946;-85
2023/06/08 05:44:43;;;;;;;;;;;21.90;71.60;;;;;;4921561;29;19951;-85
2023/06/08 05:47:09;;;;;;;;;;;22.00;71.30;;;;;;4938484;29;19986;-85
2023/06/08 05:49:35;;;;;;;;;;;22.00;70.90;;;;;;4922173;29;19918;-85
2023/06/08 05:52:00;;;;;;;;;;;22.10;70.40;;;;;;4921758;29;20009;-85
2023/06/08 05:54:26;;;;;;;;;;;22.20;70.30;;;;;;4936705;29;20461;-85
2023/06/08 05:56:51;;;;;;;;;;;22.30;69.70;;;;;;4921274;29;20272;-86
2023/06/08 05:59:17;;;;;;;;;;;22.40;69.10;;;;;;4920011;29;19950;-85
2023/06/08 06:01:43;;;;;;;;;;;22.40;69.40;;;;;;4920675;29;20246;-85
2023/06/08 06:04:08;;;;;;;;;;;22.50;69.00;;;;;;4936478;29;19923;-85
2023/06/08 06:06:35;;;;;;;;;;;22.60;69.30;;;;;;4919800;29;19970;-86
2023/06/08 06:09:02;;;;;;;;;;;22.70;69.20;;;;;;4935362;29;19919;-85
2023/06/08 06:11:27;;;;;;;;;;;22.80;68.50;;;;;;4923082;29;19930;-85
2023/06/08 06:13:53;;;;;;;;;;;23.00;68.80;;;;;;4923421;29;19911;-85
2023/06/08 06:16:18;;;;;;;;;;;23.00;68.10;;;;;;4935506;29;19974;-85
2023/06/08 06:18:46;;;;;;;;;;;23.20;66.30;;;;;;4919713;29;19921;-85
2023/06/08 06:21:12;;;;;;;;;;;23.30;68.00;;;;;;4920145;29;19946;-85
2023/06/08 06:23:38;;;;;;;;;;;23.40;65.60;;;;;;4921251;29;19911;-85
2023/06/08 06:26:04;;;;;;;;;;;23.50;64.80;;;;;;4918795;29;19914;-85
2023/06/08 06:28:30;;;;;;;;;;;23.70;65.90;;;;;;4918966;29;19922;-85
2023/06/08 06:30:55;;;;;;;;;;;23.80;66.80;;;;;;4936444;29;19943;-85
2023/06/08 06:33:21;;;;;;;;;;;24.00;63.90;;;;;;4935043;29;19966;-85
2023/06/08 06:35:46;;;;;;;;;;;24.10;63.50;;;;;;4934747;29;19947;-85
2023/06/08 06:38:12;;;;;;;;;;;24.20;63.70;;;;;;4918218;29;19907;-85
2023/06/08 06:40:37;;;;;;;;;;;24.40;63.30;;;;;;4917201;29;19966;-85
2023/06/08 06:43:03;;;;;;;;;;;24.50;64.00;;;;;;4919270;29;20174;-85
2023/06/08 06:45:29;;;;;;;;;;;24.60;62.00;;;;;;4919620;29;20180;-85
2023/06/08 06:47:55;;;;;;;;;;;24.80;61.80;;;;;;4934368;29;20194;-86
2023/06/08 06:50:20;;;;;;;7.10;4.10;;;24.90;61.90;;;;;;4914160;29;20387;-86
2023/06/08 06:52:46;;;;;;;6.27;4.13;;;25.00;60.30;;;;;;4916345;29;20572;-85
2023/06/08 06:55:12;;;;;;;5.40;3.67;;;25.20;60.60;;;;;;4933540;29;20378;-86
2023/06/08 06:57:40;;;;;;;5.50;4.10;;;25.40;59.70;;;;;;4930921;29;20172;-86
2023/06/08 07:00:09;;;;;;;6.07;3.80;;;25.60;59.50;;;;;;4914949;29;20267;-86
2023/06/08 07:02:37;;;;;;;4.93;3.50;;;25.60;59.00;;;;;;4931566;29;20505;-86
2023/06/08 07:05:07;;;;;;;6.13;4.90;;;25.60;58.90;;;;;;4914543;29;20191;-86
2023/06/08 07:07:33;;;;;;;6.63;3.80;;;25.40;59.80;;;;;;4914794;29;20291;-86
2023/06/08 07:09:59;;;;;;;4.50;3.50;;;25.30;59.50;;;;;;4914862;29;20176;-86
2023/06/08 07:12:25;;;;;;;5.57;3.80;;;25.20;59.80;;;;;;4916178;29;20275;-86
2023/06/08 07:14:51;;;;;;;6.13;3.80;;;25.10;60.10;;;;;;4915898;29;20243;-86
2023/06/08 07:17:17;;;;;;;5.13;3.53;;;25.10;60.00;;;;;;4915031;29;20216;-86
2023/06/08 07:19:46;;;;;;;4.40;3.30;;;25.40;59.60;;;;;;4914543;29;20172;-85
2023/06/08 07:22:12;;;;;;;4.97;3.67;;;25.40;59.80;;;;;;4912239;29;20176;-86
2023/06/08 07:24:37;;;;;;;4.83;3.80;;;25.40;59.80;;;;;;4931203;29;20183;-86
2023/06/08 07:27:03;;;;;;;5.27;3.93;;;25.20;59.60;;;;;;4914504;29;20208;-86
2023/06/08 07:29:29;;;;;;;5.27;3.50;;;25.20;60.30;;;;;;4914247;29;20168;-86
2023/06/08 07:31:56;;;;;;;5.07;3.90;;;25.10;59.90;;;;;;4914653;29;20504;-86
2023/06/08 07:34:22;;;;;;;8.33;3.97;;;25.40;59.90;;;;;;4916746;29;20460;-86
2023/06/08 07:36:47;;;;;;;4.63;3.80;;;25.70;59.60;;;;;;4915423;29;20548;-85
2023/06/08 07:39:13;;;;;;;5.63;4.27;;;26.00;58.60;;;;;;4917121;29;20203;-85
2023/06/08 07:41:39;;;;;;;7.00;4.07;;;26.50;57.90;;;;;;4916350;29;20493;-86
2023/06/08 07:44:05;;;;;;;5.23;3.93;;;26.30;58.00;;;;;;4915166;29;20584;-85
2023/06/08 07:46:31;;;;;;;7.00;4.07;;;26.40;57.80;;;;;;4932240;29;20255;-85
2023/06/08 07:48:57;;;;;;;5.73;3.67;;;26.30;58.20;;;;;;4931106;29;20173;-85
2023/06/08 07:51:22;;;;;;;7.37;5.20;;;26.10;58.60;;;;;;4898468;29;20192;-86
2023/06/08 07:53:48;;;;;;;4.83;3.90;;;26.00;59.30;;;;;;4915172;29;20227;-86
2023/06/08 07:56:14;;;;;;;6.43;3.80;;;26.50;58.00;;;;;;4912318;29;20592;-86
2023/06/08 07:58:40;;;;;;;6.17;3.83;;;27.30;56.60;;;;;;4912220;29;20498;-86
2023/06/08 08:01:06;;;;;;;5.27;3.40;;;27.90;55.80;;;;;;4912182;29;20310;-86
2023/06/08 08:03:37;;;;;;;3.88;3.45;;;28.30;54.80;;;;;;4913185;29;20263;-86
2023/06/08 08:06:03;;;;;;;6.10;3.78;;;28.70;54.10;;;;;;4912235;29;20212;-86
2023/06/08 08:08:29;;;;;;;3.70;3.28;;;29.10;53.60;;;;;;4913257;29;20184;-86
2023/06/08 08:10:55;;;;;;;4.65;3.30;;;29.40;53.00;;;;;;4913278;29;20180;-86
2023/06/08 08:13:29;;;;;;;3.83;3.42;;;29.60;52.60;;;;;;4913201;29;20355;-86
2023/06/08 08:15:56;;;;;;;5.88;3.95;;;29.80;52.10;;;;;;4928242;29;20416;-86
2023/06/08 08:18:22;;;;;;;4.40;3.50;;;30.00;51.90;;;;;;4928984;29;20304;-86
2023/06/08 08:20:48;;;;;;;6.82;3.40;;;30.10;51.50;;;;;;4929715;29;20327;-86
2023/06/08 08:23:14;;;;;;;7.88;5.50;;;30.20;51.40;;;;;;4931344;29;20265;-86
2023/06/08 08:25:40;;;;;;;5.40;3.80;;;30.20;51.20;;;;;;4948436;29;20244;-87
2023/06/08 08:28:06;;;;;;;6.15;4.47;;;30.30;51.20;;;;;;4931458;29;20187;-87
2023/06/08 08:30:32;;;;;;;5.35;4.25;;;30.40;51.20;;;;;;4930494;29;20181;-86
2023/06/08 08:32:58;;;;;;;5.20;3.60;;;30.40;51.00;;;;;;4930986;29;20477;-86
2023/06/08 08:35:29;;;;;;;4.80;3.90;;;30.40;50.90;;;;;;4931235;29;20287;-87
2023/06/08 08:37:58;;;;;;;;;;;30.60;50.70;;;;;;4930054;29;19989;-86
2023/06/08 08:40:24;;;;;;;;;;;30.60;50.70;;;;;;4930140;29;20187;-86
2023/06/08 08:43:13;;;;;;;;;;;30.40;51.30;;;;;;4929684;29;19917;-86
2023/06/08 08:45:41;;;;;;;;;;;30.30;51.40;;;;;;4952743;28;19907;-86
2023/06/08 08:48:07;;;;;;;;;;;30.00;51.60;;;;;;4930850;29;19921;-86
2023/06/08 08:50:36;;;;;;;;;;;29.90;51.90;;;;;;4945874;29;19910;-86
2023/06/08 08:53:02;;;;;;;;;;;29.90;52.30;;;;;;4931133;29;19911;-86
2023/06/08 08:55:33;;;;;;;;;;;29.70;52.50;;;;;;4929916;29;19911;-87
2023/06/08 08:57:59;;;;;;;;;;;29.50;52.30;;;;;;4944286;29;20005;-87
2023/06/08 09:00:26;;;;;;;;;;;29.60;52.40;;;;;;4932391;29;20160;-86
2023/06/08 09:02:52;;;;;;;;;;;29.60;53.00;;;;;;4945683;29;20159;-86
2023/06/08 09:05:18;;;;;;;;;;;29.40;53.00;;;;;;4932749;29;20259;-86
2023/06/08 09:07:43;;;;;;;;;;;29.40;52.80;;;;;;4931136;29;19913;-86
2023/06/08 09:10:13;;;;;;;;;;;29.30;53.40;;;;;;4927708;29;19907;-86
2023/06/08 09:12:40;;;;;;;;;;;29.20;53.20;;;;;;4930669;29;19939;-86
2023/06/08 09:15:39;;;;;;;;;;;29.30;53.20;;;;;;4936432;29;19906;-86
2023/06/08 09:18:15;;;;;;;;;;;29.30;53.00;;;;;;4953275;29;19973;-86
2023/06/08 09:20:41;;;;;;;;;;;29.20;53.30;;;;;;4933723;29;20313;-86
2023/06/08 09:23:15;;;;;;;;;;;29.20;53.50;;;;;;4934780;29;19915;-86
2023/06/08 09:25:41;;;;;;;;;;;29.20;53.50;;;;;;4936538;29;19958;-86
2023/06/08 09:28:14;;;;;;;;;;;29.20;53.50;;;;;;4935342;29;19918;-86
2023/06/08 09:30:41;;;;;;;;;;;29.20;53.80;;;;;;4949593;29;20263;-86
2023/06/08 09:33:20;;;;;;;;;;;29.00;53.70;;;;;;4935056;29;19943;-86
2023/06/08 09:35:46;;;;;;;;;;;29.00;54.10;;;;;;4935145;29;20131;-86
2023/06/08 09:38:18;;;;;;;;;;;28.90;53.90;;;;;;4933771;29;20194;-87
2023/06/08 09:40:49;;;;;;;;;;;28.90;54.00;;;;;;4932809;29;19917;-86
2023/06/08 09:43:29;;;;;;;;;;;28.80;54.00;;;;;;4947813;29;19907;-86
2023/06/08 09:45:55;;;;;;;;;;;28.80;54.10;;;;;;4930156;29;20354;-86
2023/06/08 09:48:20;;;;;;;;;;;28.70;54.40;;;;;;4929975;29;19997;-86
2023/06/08 09:50:52;;;;;;;;;;;28.70;54.60;;;;;;4947355;29;20009;-86
2023/06/08 09:53:18;;;;;;;;;;;28.70;54.50;;;;;;4932111;29;19977;-86
2023/06/08 09:55:44;;;;;;;;;;;28.70;54.90;;;;;;4931480;29;20438;-86
2023/06/08 09:58:10;;;;;;;;;;;28.80;54.60;;;;;;4931217;29;19921;-87
2023/06/08 10:00:36;;;;;;;;;;;28.70;54.50;;;;;;4932715;29;19921;-86
2023/06/08 10:03:24;;;;;;;;;;;28.70;54.70;;;;;;4933184;29;19974;-87
2023/06/08 10:05:50;;;;;;;;;;;28.70;54.70;;;;;;4931838;29;20070;-87
2023/06/08 10:08:18;;;;;;;;;;;28.60;55.10;;;;;;4931681;29;19907;-87
2023/06/08 10:10:44;;;;;;;;;;;28.70;55.20;;;;;;4947608;29;19914;-87
2023/06/08 10:13:10;;;;;;;;;;;28.70;55.30;;;;;;4933036;29;19917;-87
2023/06/08 10:15:37;;;;;;;;;;;28.60;55.10;;;;;;4933456;29;19915;-87
2023/06/08 10:18:03;;;;;;;;;;;28.60;55.30;;;;;;4933878;29;19938;-87
2023/06/08 10:20:29;;;;;;;;;;;28.50;55.50;;;;;;4932010;29;20330;-87
2023/06/08 10:22:57;;;;;;;;;;;28.40;55.60;;;;;;4931883;29;19907;-87
2023/06/08 10:25:27;;;;;;;;;;;28.40;55.50;;;;;;4932001;29;19961;-87
2023/06/08 10:27:53;;;;;;;;;;;28.30;55.80;;;;;;4932695;29;19914;-87
2023/06/08 10:30:28;;;;;;;;;;;28.40;55.70;;;;;;4948592;29;20267;-86
2023/06/08 10:32:57;;;;;;;;;;;28.40;55.80;;;;;;4931495;29;20267;-87
2023/06/08 10:35:23;;;;;;;;;;;28.40;56.10;;;;;;4931243;29;19954;-87
2023/06/08 10:37:48;;;;;;;;;;;28.30;55.90;;;;;;4933500;29;20267;-87
2023/06/08 10:40:14;;;;;;;;;;;28.30;56.10;;;;;;4948918;29;19969;-87
2023/06/08 10:43:00;;;;;;;;;;;28.30;56.30;;;;;;4932906;29;19911;-87
2023/06/08 10:45:32;;;;;;;;;;;28.30;56.30;;;;;;4963562;28;19921;-87
2023/06/08 10:48:01;;;;;;;;;;;28.20;56.30;;;;;;4931795;29;20255;-87
2023/06/08 10:50:30;;;;;;;;;;;28.20;56.20;;;;;;4932593;29;19918;-87
2023/06/08 10:52:58;;;;;;;;;;;28.10;56.60;;;;;;4929959;29;19907;-87
2023/06/08 10:55:25;;;;;;;;;;;28.10;56.70;;;;;;4931394;29;19969;-86
2023/06/08 10:57:52;;;;;;;;;;;28.10;56.90;;;;;;4928257;29;20148;-87
2023/06/08 11:00:29;;;;;;;;;;;28.10;56.90;;;;;;4943865;29;20040;-87
2023/06/08 11:02:56;;;;;;;;;;;28.10;56.80;;;;;;4944043;29;19906;-87
2023/06/08 11:05:23;;;;;;;;;;;28.10;56.90;;;;;;4926657;29;19907;-88
2023/06/08 11:07:48;;;;;;;;;;;28.00;57.10;;;;;;4929411;29;20092;-86
2023/06/08 11:10:14;;;;;;;;;;;28.10;57.20;;;;;;4930117;29;20062;-87
2023/06/08 11:12:40;;;;;;;;;;;28.00;57.40;;;;;;4929925;29;19907;-86
2023/06/08 11:15:06;;;;;;;;;;;28.00;57.80;;;;;;4929063;29;20001;-86
2023/06/08 11:17:40;;;;;;;;;;;28.00;57.50;;;;;;4927347;29;19946;-87
2023/06/08 11:20:06;;;;;;;;;;;28.10;57.40;;;;;;4926859;29;20127;-86
2023/06/08 11:22:32;;;;;;;;;;;28.10;57.40;;;;;;4917979;29;19911;-86
2023/06/08 11:24:57;;;;;;;;;;;28.00;57.50;;;;;;4930642;29;20183;-86
2023/06/08 11:27:23;;;;;;;;;;;27.90;57.40;;;;;;4944188;29;19941;-86
2023/06/08 11:29:49;;;;;;;;;;;28.00;57.60;;;;;;4926874;29;20226;-86
2023/06/08 11:32:16;;;;;;;;;;;27.90;57.60;;;;;;4927763;29;19939;-86
2023/06/08 11:34:49;;;;;;;;;;;27.90;57.60;;;;;;4929249;29;20273;-86
2023/06/08 11:37:18;;;;;;;;;;;27.90;57.70;;;;;;4913765;29;19961;-86
2023/06/08 11:39:45;;;;;;;;;;;27.90;57.80;;;;;;4930517;29;20201;-86
2023/06/08 11:42:11;;;;;;;;;;;28.00;57.60;;;;;;4929699;29;19932;-86
2023/06/08 11:44:37;;;;;;;;;;;27.90;57.80;;;;;;4928029;29;19980;-86
2023/06/08 11:47:06;;;;;;;;;;;27.90;58.00;;;;;;4947028;29;20070;-86
2023/06/08 11:49:51;;;;;;;;;;;27.90;57.90;;;;;;4930244;29;20103;-86
2023/06/08 11:52:16;;;;;;;;;;;27.90;58.00;;;;;;4932161;29;20246;-86
2023/06/08 11:54:42;;;;;;;;;;;27.90;58.00;;;;;;4915467;29;20280;-86
2023/06/08 11:57:08;;;;;;;;;;;27.90;58.20;;;;;;4931447;29;19954;-86
2023/06/08 11:59:40;;;;;;;;;;;27.80;58.20;;;;;;4931799;29;19907;-86
2023/06/08 12:02:09;;;;;;;;;;;27.80;58.30;;;;;;4944947;29;19974;-86
2023/06/08 12:04:35;;;;;;;;;;;27.80;58.30;;;;;;4930367;29;19907;-87
2023/06/08 12:07:10;;;;;;;;;;;27.80;58.20;;;;;;4932632;29;19907;-86
2023/06/08 12:09:36;;;;;;;;;;;27.70;58.50;;;;;;4932266;29;20267;-86
2023/06/08 12:12:09;;;;;;;;;;;27.70;58.40;;;;;;4932859;29;20199;-86
2023/06/08 12:14:45;;;;;;;;;;;27.70;58.40;;;;;;4931294;29;19961;-86
2023/06/08 12:17:14;;;;;;;;;;;27.70;58.20;;;;;;4913405;29;20390;-86
2023/06/08 12:19:53;;;;;;;;;;;27.70;58.50;;;;;;4931455;29;20268;-86
2023/06/08 12:22:19;;;;;;;;;;;27.70;58.70;;;;;;4930520;29;19978;-86
2023/06/08 12:24:45;;;;;;;;;;;27.70;58.60;;;;;;4928733;29;19907;-86
2023/06/08 12:27:10;;;;;;;;;;;27.60;58.70;;;;;;4930650;29;19910;-86
2023/06/08 12:29:37;;;;;;;;;;;27.60;58.70;;;;;;4931197;29;19973;-86
2023/06/08 12:32:03;;;;;;;;;;;27.60;58.80;;;;;;4927670;29;20026;-86
2023/06/08 12:34:30;;;;;;;;;;;27.50;58.80;;;;;;4928911;29;20276;-86
2023/06/08 12:36:56;;;;;;;;;;;27.60;58.80;;;;;;4926940;29;20437;-86
2023/06/08 12:39:22;;;;;;;;;;;27.70;58.70;;;;;;4926816;29;19970;-86
2023/06/08 12:41:47;;;;;;;;;;;27.60;58.80;;;;;;4927777;29;19933;-86
2023/06/08 12:44:13;;;;;;;;;;;27.70;58.80;;;;;;4944512;29;20182;-86
2023/06/08 12:46:39;;;;;;;;;;;27.70;58.60;;;;;;4930424;29;20190;-86
2023/06/08 12:49:05;;;;;;;;;;;27.70;58.80;;;;;;4943617;29;19996;-86
2023/06/08 12:51:31;;;;;;;;;;;27.60;58.90;;;;;;4927066;29;19906;-86
2023/06/08 12:53:56;;;;;;;;;;;27.50;58.70;;;;;;4926213;29;19911;-86
2023/06/08 12:56:22;;;;;;;;;;;27.50;58.80;;;;;;4928450;29;19915;-86
2023/06/08 12:58:48;;;;;;;;;;;27.60;58.80;;;;;;4930357;29;19906;-86
2023/06/08 13:01:14;;;;;;;;;;;27.50;58.90;;;;;;4929577;29;19906;-86
2023/06/08 13:03:41;;;;;;;;;;;27.60;58.80;;;;;;4929126;29;19920;-86
2023/06/08 13:06:06;;;;;;;;;;;27.60;58.80;;;;;;4928625;29;20103;-86
2023/06/08 13:08:34;;;;;;;;;;;27.50;58.80;;;;;;4944582;29;20610;-85
2023/06/08 13:11:00;;;;;;;;;;;27.50;58.80;;;;;;4930247;29;19921;-86
2023/06/08 13:13:27;;;;;;;;;;;27.50;58.90;;;;;;4929860;29;19993;-86
2023/06/08 13:15:54;;;;;;;;;;;27.50;58.80;;;;;;4932445;29;19915;-85
2023/06/08 13:18:20;;;;;;;;;;;27.50;58.90;;;;;;4930100;29;19911;-85
2023/06/08 13:20:46;;;;;;;;;;;27.50;59.00;;;;;;4927858;29;19911;-85
2023/06/08 13:23:12;;;;;;;;;;;27.50;58.80;;;;;;4931219;29;19911;-85
2023/06/08 13:25:37;;;;;;;;;;;27.50;58.90;;;;;;4945579;29;19931;-85
2023/06/08 13:28:05;;;;;;;;;;;27.60;58.70;;;;;;4929507;29;20089;-85
2023/06/08 13:30:31;;;;;;;;;;;27.50;58.60;;;;;;4931438;29;20203;-85
2023/06/08 13:32:59;;;;;;;;;;;27.50;58.80;;;;;;4926717;29;19919;-85
2023/06/08 13:35:25;;;;;;;;;;;27.60;58.60;;;;;;4945015;29;19911;-86
2023/06/08 13:37:52;;;;;;;;;;;27.50;58.70;;;;;;4929734;29;19918;-85
2023/06/08 13:40:18;;;;;;;;;;;27.50;58.90;;;;;;4929494;29;19933;-85
2023/06/08 13:42:43;;;;;;;;;;;27.50;58.90;;;;;;4929186;29;20443;-85
2023/06/08 13:45:12;;;;;;;;;;;27.40;58.90;;;;;;4926437;29;19911;-86
2023/06/08 13:47:38;;;;;;;;;;;27.40;58.90;;;;;;4928070;29;19911;-85
2023/06/08 13:50:04;;;;;;;;;;;27.40;58.80;;;;;;4930089;29;19946;-86
2023/06/08 13:52:30;;;;;;;;;;;27.40;58.90;;;;;;4907448;29;19912;-85
2023/06/08 13:54:56;;;;;;;;;;;27.40;58.70;;;;;;4891656;29;20421;-85
2023/06/08 13:57:22;;;;;;;;;;;27.40;58.90;;;;;;4891832;29;19978;-85
2023/06/08 13:59:48;;;;;;;;;;;27.40;58.90;;;;;;4893395;29;19912;-84
2023/06/08 14:02:13;;;;;;;5.20;4.80;;;27.30;58.50;;;;;;4891129;29;20235;-85
2023/06/08 14:04:39;;;;;;;5.50;5.00;;;27.20;58.50;;;;;;4924169;29;20571;-85